Albion, New Jersey
Current Conditions -  °F | °C
As of 4:54 AM on Friday 21 Nov 2014 (Local Time) from KVAY Reporting Station
Clear Clear  
Wind Chill: 19°   Ceiling: Unl
Heat Index: 29°   Visibility: 10mi
Dew Point:   Wind: 12mph
Humidity: 40%   Direction: 270°W
Pressure: 30.19"   Gusts: NA
Location:  39.7587°N, 74.9349°W
Report Text: KVAY 210954Z AUTO 27010KT 10SM CLR M02/M14 A3019 RMK AO2 SLP224 T10171139
Loading
Personal Weather Stations






























Interactive Weather Map New forecast layout! Learn more

10-Day Weather Forecast

Advertisements
Track Severe Weather on mobile